createdAt,value
2023-04-14T00:01:19.705Z,99.90
2023-04-14T00:03:47.350Z,99.90
2023-04-14T00:06:14.786Z,99.90
2023-04-14T00:08:42.094Z,99.90
2023-04-14T00:11:09.768Z,99.90
2023-04-14T00:13:37.604Z,99.90
2023-04-14T00:16:06.189Z,99.90
2023-04-14T00:18:33.596Z,99.90
2023-04-14T00:21:02.466Z,99.90
2023-04-14T00:23:29.920Z,99.90
2023-04-14T00:25:57.298Z,99.90
2023-04-14T00:28:24.735Z,99.90
2023-04-14T00:30:52.157Z,99.90
2023-04-14T00:33:19.577Z,99.90
2023-04-14T00:35:46.959Z,99.90
2023-04-14T00:38:14.317Z,99.90
2023-04-14T00:40:41.678Z,99.90
2023-04-14T00:43:09.069Z,99.90
2023-04-14T00:45:45.687Z,99.90
2023-04-14T00:48:14.968Z,99.90
2023-04-14T00:50:43.248Z,99.90
2023-04-14T00:53:12.869Z,99.90
2023-04-14T00:55:41.494Z,99.90
2023-04-14T00:58:11.066Z,99.90
2023-04-14T01:00:38.611Z,99.90
2023-04-14T01:03:06.665Z,99.90
2023-04-14T01:05:34.579Z,99.90
2023-04-14T01:08:03.519Z,99.90
2023-04-14T01:10:38.203Z,99.90
2023-04-14T01:13:14.052Z,99.90
2023-04-14T01:16:00.788Z,99.90
2023-04-14T01:18:51.862Z,99.90
2023-04-14T01:21:26.430Z,99.90
2023-04-14T01:24:22.417Z,99.90
2023-04-14T01:27:03.185Z,99.90
2023-04-14T01:29:59.602Z,99.90
2023-04-14T01:32:29.989Z,99.90
2023-04-14T01:34:59.814Z,99.90
2023-04-14T01:37:34.045Z,99.90
2023-04-14T01:40:11.266Z,99.90
2023-04-14T01:42:42.938Z,99.90
2023-04-14T01:45:16.897Z,99.90
2023-04-14T01:47:46.403Z,99.90
2023-04-14T01:50:14.950Z,99.90
2023-04-14T01:52:44.521Z,99.90
2023-04-14T01:55:12.809Z,99.90
2023-04-14T01:57:44.284Z,99.90
2023-04-14T02:00:12.874Z,99.90
2023-04-14T02:02:44.781Z,99.90
2023-04-14T02:05:13.994Z,99.90
2023-04-14T02:07:42.841Z,99.90
2023-04-14T02:10:11.126Z,99.90
2023-04-14T02:12:43.361Z,99.90
2023-04-14T02:15:15.636Z,99.90
2023-04-14T02:17:46.739Z,99.90
2023-04-14T02:20:15.431Z,99.90
2023-04-14T02:22:43.000Z,99.90
2023-04-14T02:25:10.632Z,99.90
2023-04-14T02:27:51.323Z,99.90
2023-04-14T02:30:30.619Z,99.90
2023-04-14T02:33:05.549Z,99.90
2023-04-14T02:35:44.560Z,99.90
2023-04-14T02:38:37.652Z,99.90
2023-04-14T02:41:12.771Z,99.90
2023-04-14T02:43:57.938Z,99.90
2023-04-14T02:46:27.901Z,99.90
2023-04-14T02:48:55.904Z,99.90
2023-04-14T02:51:25.788Z,99.90
2023-04-14T02:53:53.874Z,99.90
2023-04-14T02:56:35.653Z,99.90
2023-04-14T02:59:03.986Z,99.90
2023-04-14T03:01:33.269Z,99.90
2023-04-14T03:04:01.864Z,99.90
2023-04-14T03:06:33.273Z,99.90
2023-04-14T03:09:02.335Z,99.90
2023-04-14T03:11:32.952Z,99.90
2023-04-14T03:14:00.742Z,99.90
2023-04-14T03:16:30.452Z,99.90
2023-04-14T03:18:59.920Z,99.90
2023-04-14T03:21:30.163Z,99.90
2023-04-14T03:23:59.936Z,99.90
2023-04-14T03:26:29.920Z,99.90
2023-04-14T03:28:59.771Z,99.90
2023-04-14T03:31:32.699Z,99.90
2023-04-14T03:34:04.504Z,99.90
2023-04-14T03:36:37.221Z,99.90
2023-04-14T03:39:05.982Z,99.90
2023-04-14T03:41:38.730Z,99.90
2023-04-14T03:44:14.599Z,99.90
2023-04-14T03:46:44.708Z,99.90
2023-04-14T03:49:16.791Z,99.90
2023-04-14T03:51:48.212Z,99.90
2023-04-14T03:54:17.646Z,99.90
2023-04-14T03:56:47.665Z,99.90
2023-04-14T03:59:18.303Z,99.90
2023-04-14T04:01:47.299Z,99.90
2023-04-14T04:04:15.685Z,99.90
2023-04-14T04:06:43.457Z,99.90
2023-04-14T04:09:14.762Z,99.90
2023-04-14T04:11:45.070Z,99.90
2023-04-14T04:14:15.084Z,99.90
2023-04-14T04:16:44.206Z,99.90
2023-04-14T04:19:15.100Z,99.90
2023-04-14T04:21:46.361Z,99.90
2023-04-14T04:24:15.719Z,99.90
2023-04-14T04:26:44.040Z,99.90
2023-04-14T04:29:12.151Z,99.90
2023-04-14T04:34:08.656Z,99.90
2023-04-14T04:36:39.525Z,99.90
2023-04-14T04:39:07.064Z,99.90
2023-04-14T04:41:38.507Z,99.90
2023-04-14T04:44:06.441Z,99.90
2023-04-14T04:46:53.736Z,99.90
2023-04-14T04:49:24.991Z,99.90
2023-04-14T04:51:54.021Z,99.90
2023-04-14T04:54:21.534Z,99.90
2023-04-14T04:56:48.968Z,99.90
2023-04-14T04:59:16.404Z,99.90
2023-04-14T05:01:43.919Z,99.90
2023-04-14T05:04:11.899Z,99.90
2023-04-14T05:06:39.442Z,99.90
2023-04-14T05:09:07.025Z,99.90
2023-04-14T05:11:35.078Z,99.90
2023-04-14T05:14:03.157Z,99.90
2023-04-14T05:16:31.460Z,99.90
2023-04-14T05:18:59.597Z,99.90
2023-04-14T05:21:27.276Z,99.90
2023-04-14T05:23:54.677Z,99.90
2023-04-14T05:26:44.525Z,99.90
2023-04-14T05:29:09.788Z,99.90
2023-04-14T05:31:37.238Z,99.90
2023-04-14T05:34:04.616Z,99.90
2023-04-14T05:36:32.237Z,99.90
2023-04-14T05:39:00.169Z,99.90
2023-04-14T05:41:27.686Z,99.90
2023-04-14T05:43:55.096Z,99.90
2023-04-14T05:46:22.473Z,99.90
2023-04-14T05:48:49.843Z,99.90
2023-04-14T05:51:17.226Z,99.90
2023-04-14T05:53:44.697Z,99.90
2023-04-14T05:56:12.116Z,99.90
2023-04-14T05:58:39.553Z,99.90
2023-04-14T06:01:07.017Z,99.90
2023-04-14T06:03:35.497Z,99.90
2023-04-14T06:06:04.911Z,99.90
2023-04-14T06:08:32.245Z,99.90
2023-04-14T06:10:59.669Z,99.90
2023-04-14T06:13:27.970Z,99.90
2023-04-14T06:15:58.176Z,99.90
2023-04-14T06:18:25.636Z,99.90
2023-04-14T06:20:53.025Z,99.90
2023-04-14T06:23:21.705Z,99.90
2023-04-14T06:25:49.154Z,99.90
2023-04-14T06:28:16.517Z,99.90
2023-04-14T06:30:43.985Z,99.90
2023-04-14T06:33:11.859Z,99.90
2023-04-14T06:35:39.417Z,99.90
2023-04-14T06:38:06.951Z,99.90
2023-04-14T06:40:34.336Z,99.90
2023-04-14T06:43:02.925Z,99.90
2023-04-14T06:45:30.359Z,99.90
2023-04-14T06:47:57.810Z,99.90
2023-04-14T06:50:25.449Z,99.90
2023-04-14T06:52:52.896Z,99.90
2023-04-14T06:55:21.797Z,99.90
2023-04-14T06:57:49.204Z,99.90
2023-04-14T07:00:16.927Z,99.90
2023-04-14T07:02:44.459Z,99.90
2023-04-14T07:05:12.398Z,99.90
2023-04-14T07:07:41.110Z,99.90
2023-04-14T07:10:08.936Z,99.90
2023-04-14T07:12:36.384Z,99.90
2023-04-14T07:15:04.027Z,99.90
2023-04-14T07:17:31.459Z,99.90
2023-04-14T07:19:58.903Z,99.90
2023-04-14T07:22:26.370Z,99.90
2023-04-14T07:24:54.144Z,99.90
2023-04-14T07:27:21.548Z,99.90
2023-04-14T07:29:49.304Z,99.90
2023-04-14T07:32:16.677Z,99.90
2023-04-14T07:34:44.310Z,99.90
2023-04-14T07:37:11.964Z,99.90
2023-04-14T07:39:39.777Z,99.90
2023-04-14T07:42:07.377Z,99.90
2023-04-14T07:44:34.899Z,99.90
2023-04-14T07:47:02.259Z,99.90
2023-04-14T07:49:29.656Z,99.90
2023-04-14T07:51:57.343Z,99.90
2023-04-14T07:54:24.787Z,99.90
2023-04-14T07:56:52.159Z,99.90
2023-04-14T07:59:19.575Z,99.90
2023-04-14T08:01:48.471Z,99.90
2023-04-14T08:04:16.202Z,99.90
2023-04-14T08:06:43.705Z,99.90
2023-04-14T08:09:12.267Z,99.90
2023-04-14T08:11:39.742Z,99.90
2023-04-14T08:14:07.193Z,99.90
2023-04-14T08:16:36.934Z,99.90
2023-04-14T08:19:05.004Z,99.90
2023-04-14T08:21:33.184Z,99.90
2023-04-14T08:24:01.080Z,99.90
2023-04-14T08:26:28.521Z,99.90
2023-04-14T08:28:56.199Z,99.90
2023-04-14T08:31:25.133Z,99.90
2023-04-14T08:33:52.986Z,99.90
2023-04-14T08:36:20.999Z,99.90
2023-04-14T08:38:48.541Z,99.90
2023-04-14T08:41:19.563Z,98.70
2023-04-14T08:43:47.188Z,99.90
2023-04-14T08:46:16.412Z,99.40
2023-04-14T08:48:47.722Z,99.90
2023-04-14T08:51:21.473Z,99.90
2023-04-14T08:53:49.626Z,99.90
2023-04-14T08:56:18.851Z,99.90
2023-04-14T08:58:47.347Z,99.90
2023-04-14T09:01:15.591Z,99.90
2023-04-14T09:03:44.672Z,98.70
2023-04-14T09:06:13.197Z,98.30
2023-04-14T09:08:40.717Z,98.50
2023-04-14T09:11:08.196Z,99.10
2023-04-14T09:13:36.709Z,98.40
2023-04-14T09:16:04.342Z,98.90
2023-04-14T09:18:34.442Z,98.30
2023-04-14T09:21:50.198Z,98.50
2023-04-14T09:23:50.481Z,99.20
2023-04-14T09:26:17.858Z,98.70
2023-04-14T09:28:47.400Z,98.20
2023-04-14T09:31:15.045Z,97.50
2023-04-14T09:33:50.343Z,98.30
2023-04-14T09:36:23.466Z,98.70
2023-04-14T09:38:51.810Z,99.20
2023-04-14T09:41:26.144Z,99.40
2023-04-14T09:43:53.652Z,97.90
2023-04-14T09:46:21.685Z,98.00
2023-04-14T09:48:56.575Z,97.60
2023-04-14T09:51:28.504Z,98.80
2023-04-14T09:54:05.376Z,99.00
2023-04-14T09:56:33.210Z,98.90
2023-04-14T09:59:02.864Z,98.40
2023-04-14T10:01:34.089Z,97.90
2023-04-14T10:04:03.064Z,97.40
2023-04-14T10:06:33.758Z,98.40
2023-04-14T10:09:01.880Z,98.50
2023-04-14T10:11:32.771Z,97.50
2023-04-14T10:14:05.223Z,96.90
2023-04-14T10:16:33.841Z,95.80
2023-04-14T10:19:02.254Z,97.90
2023-04-14T10:21:30.304Z,97.90
2023-04-14T10:23:58.139Z,95.60
2023-04-14T10:26:27.746Z,96.10
2023-04-14T10:28:56.314Z,95.60
2023-04-14T10:31:29.813Z,97.00
2023-04-14T10:33:57.449Z,96.10
2023-04-14T10:36:31.996Z,96.80
2023-04-14T10:39:02.275Z,96.50
2023-04-14T10:41:48.935Z,96.60
2023-04-14T10:44:25.494Z,95.90
2023-04-14T10:46:54.337Z,95.90
2023-04-14T10:49:29.441Z,96.90
2023-04-14T10:52:27.332Z,96.00
2023-04-14T10:55:00.994Z,96.40
2023-04-14T10:57:29.796Z,96.40
2023-04-14T10:59:58.972Z,97.80
2023-04-14T11:02:34.393Z,95.10
2023-04-14T11:05:03.827Z,95.90
2023-04-14T11:07:38.530Z,96.90
2023-04-14T11:10:18.271Z,96.10
2023-04-14T11:12:47.169Z,96.10
2023-04-14T11:15:17.488Z,97.10
2023-04-14T11:17:44.983Z,98.30
2023-04-14T11:20:21.042Z,98.10
2023-04-14T11:22:50.304Z,97.60
2023-04-14T11:25:22.299Z,98.10
2023-04-14T11:27:52.084Z,97.60
2023-04-14T11:30:20.893Z,97.90
2023-04-14T11:32:51.302Z,96.60
2023-04-14T11:35:20.392Z,97.00
2023-04-14T11:37:47.777Z,96.30
2023-04-14T11:40:16.109Z,96.10
2023-04-14T11:42:51.498Z,95.80
2023-04-14T11:45:19.109Z,96.30
2023-04-14T11:48:00.421Z,96.30
2023-04-14T11:50:31.368Z,95.70
2023-04-14T11:53:03.091Z,96.10
2023-04-14T11:55:30.780Z,96.90
2023-04-14T11:57:59.289Z,95.40
2023-04-14T12:00:28.088Z,95.10
2023-04-14T12:02:56.702Z,96.10
2023-04-14T12:05:31.742Z,95.60
2023-04-14T12:08:00.625Z,96.00
2023-04-14T12:10:28.734Z,93.90
2023-04-14T12:13:03.114Z,93.50
2023-04-14T12:15:32.651Z,92.80
2023-04-14T12:18:00.631Z,92.30
2023-04-14T12:20:28.571Z,92.30
2023-04-14T12:23:05.362Z,93.30
2023-04-14T12:25:33.219Z,94.20
2023-04-14T12:28:06.669Z,94.50
2023-04-14T12:30:35.970Z,95.10
2023-04-14T12:33:12.589Z,96.30
2023-04-14T12:35:43.044Z,95.70
2023-04-14T12:38:14.650Z,95.30
2023-04-14T12:40:45.952Z,95.40
2023-04-14T12:43:14.975Z,95.10
2023-04-14T12:45:44.404Z,95.40
2023-04-14T12:48:17.744Z,94.70
2023-04-14T12:50:45.459Z,94.80
2023-04-14T12:53:27.621Z,92.70
2023-04-14T12:56:08.435Z,92.60
2023-04-14T12:58:37.870Z,92.90
2023-04-14T13:01:07.028Z,94.10
2023-04-14T13:03:41.579Z,92.90
2023-04-14T13:06:11.359Z,92.50
2023-04-14T13:08:43.737Z,91.20
2023-04-14T13:11:12.557Z,92.40
2023-04-14T13:13:40.158Z,92.40
2023-04-14T13:16:14.964Z,93.30
2023-04-14T13:18:45.232Z,91.90
2023-04-14T13:21:12.999Z,92.00
2023-04-14T13:23:41.140Z,91.90
2023-04-14T13:26:08.582Z,93.20
2023-04-14T13:28:36.847Z,92.60
2023-04-14T13:31:04.509Z,91.90
2023-04-14T13:33:33.161Z,91.70
2023-04-14T13:36:02.509Z,92.60
2023-04-14T13:38:30.952Z,91.40
2023-04-14T13:40:58.550Z,92.20
2023-04-14T13:43:26.470Z,89.30
2023-04-14T13:45:58.299Z,90.40
2023-04-14T13:48:26.391Z,90.60
2023-04-14T13:50:54.464Z,91.30
2023-04-14T13:53:21.926Z,91.20
2023-04-14T13:55:49.310Z,90.60
2023-04-14T13:58:16.778Z,87.10
2023-04-14T14:00:44.170Z,90.60
2023-04-14T14:03:12.150Z,88.70
2023-04-14T14:05:39.724Z,90.20
2023-04-14T14:08:07.169Z,89.70
2023-04-14T14:10:34.746Z,89.50
2023-04-14T14:13:02.597Z,89.30
2023-04-14T14:15:30.152Z,90.00
2023-04-14T14:17:57.587Z,87.90
2023-04-14T14:20:25.076Z,87.40
2023-04-14T14:22:52.605Z,88.20
2023-04-14T14:25:21.281Z,86.70
2023-04-14T14:27:51.494Z,88.70
2023-04-14T14:30:18.944Z,87.30
2023-04-14T14:32:46.335Z,86.90
2023-04-14T14:35:13.733Z,87.60
2023-04-14T14:37:42.777Z,87.20
2023-04-14T14:40:10.875Z,87.40
2023-04-14T14:42:38.467Z,86.80
2023-04-14T14:45:07.010Z,86.20
2023-04-14T14:47:36.423Z,85.40
2023-04-14T14:50:06.895Z,82.00
2023-04-14T14:52:35.888Z,87.20
2023-04-14T14:55:04.710Z,84.40
2023-04-14T14:57:32.306Z,83.80
2023-04-14T14:59:59.884Z,83.40
2023-04-14T15:02:27.475Z,84.90
2023-04-14T15:04:55.009Z,85.30
2023-04-14T15:07:22.402Z,85.90
2023-04-14T15:09:50.900Z,86.20
2023-04-14T15:12:18.455Z,85.90
2023-04-14T15:14:45.959Z,84.60
2023-04-14T15:17:13.357Z,84.60
2023-04-14T15:19:42.025Z,81.70
2023-04-14T15:22:10.469Z,84.90
2023-04-14T15:24:37.892Z,84.90
2023-04-14T15:27:06.021Z,83.90
2023-04-14T15:29:33.465Z,83.40
2023-04-14T15:32:01.116Z,83.00
2023-04-14T15:34:28.645Z,82.70
2023-04-14T15:36:56.358Z,77.40
2023-04-14T15:39:23.729Z,72.80
2023-04-14T15:41:51.447Z,73.40
2023-04-14T15:44:19.056Z,72.40
2023-04-14T15:46:46.503Z,70.00
2023-04-14T15:49:13.863Z,72.20
2023-04-14T15:51:41.268Z,70.10
2023-04-14T15:54:08.752Z,70.60
2023-04-14T15:56:36.277Z,72.40
2023-04-14T15:59:03.718Z,73.30
2023-04-14T16:01:31.212Z,73.60
2023-04-14T16:03:58.777Z,72.10
2023-04-14T16:06:26.615Z,72.90
2023-04-14T16:08:54.167Z,74.00
2023-04-14T16:11:21.557Z,73.60
2023-04-14T16:13:48.922Z,75.10
2023-04-14T16:16:16.607Z,74.40
2023-04-14T16:18:44.077Z,76.90
2023-04-14T16:21:11.783Z,72.50
2023-04-14T16:23:39.176Z,71.20
2023-04-14T16:26:06.729Z,67.50
2023-04-14T16:28:34.701Z,67.20
2023-04-14T16:31:02.936Z,66.00
2023-04-14T16:33:32.579Z,64.20
2023-04-14T16:36:07.658Z,63.80
2023-04-14T16:38:35.437Z,62.40
2023-04-14T16:41:03.428Z,62.80
2023-04-14T16:43:31.418Z,61.40
2023-04-14T16:46:05.302Z,61.30
2023-04-14T16:48:33.238Z,61.20
2023-04-14T16:51:08.578Z,60.60
2023-04-14T16:53:39.119Z,68.20
2023-04-14T16:56:11.222Z,72.50
2023-04-14T16:58:39.043Z,74.40
2023-04-14T17:01:06.913Z,76.00
2023-04-14T17:03:34.957Z,76.40
2023-04-14T17:06:03.076Z,76.60
2023-04-14T17:08:30.446Z,76.00
2023-04-14T17:10:57.990Z,76.40
2023-04-14T17:13:25.530Z,76.50
2023-04-14T17:16:05.657Z,77.70
2023-04-14T17:18:36.589Z,77.70
2023-04-14T17:21:05.674Z,78.70
2023-04-14T17:23:37.466Z,79.40
2023-04-14T17:26:05.922Z,79.10
2023-04-14T17:28:34.956Z,79.40
2023-04-14T17:31:05.726Z,80.50
2023-04-14T17:33:33.108Z,79.80
2023-04-14T17:36:01.010Z,79.50
2023-04-14T17:38:28.398Z,80.20
2023-04-14T17:40:56.146Z,80.00
2023-04-14T17:43:23.814Z,80.00
2023-04-14T17:45:51.553Z,80.40
2023-04-14T17:48:19.501Z,81.50
2023-04-14T17:50:47.074Z,81.70
2023-04-14T17:53:16.330Z,82.70
2023-04-14T17:55:44.899Z,82.00
2023-04-14T17:58:12.412Z,82.40
2023-04-14T18:00:39.973Z,82.40
2023-04-14T18:03:07.481Z,82.40
2023-04-14T18:05:34.977Z,83.60
2023-04-14T18:08:02.750Z,83.40
2023-04-14T18:10:30.122Z,83.40
2023-04-14T18:12:57.593Z,85.10
2023-04-14T18:15:25.216Z,85.30
2023-04-14T18:17:52.703Z,86.60
2023-04-14T18:20:24.928Z,88.20
2023-04-14T18:22:54.244Z,88.00
2023-04-14T18:25:21.670Z,89.20
2023-04-14T18:30:19.460Z,87.80
2023-04-14T18:32:47.159Z,87.90
2023-04-14T18:35:15.791Z,87.80
2023-04-14T18:37:43.465Z,87.80
2023-04-14T18:40:11.029Z,87.90
2023-04-14T18:42:39.022Z,87.50
2023-04-14T18:45:07.295Z,88.60
2023-04-14T18:47:34.774Z,90.00
2023-04-14T18:50:02.836Z,90.40
2023-04-14T18:52:30.280Z,90.70
2023-04-14T18:54:57.719Z,90.70
2023-04-14T18:57:25.345Z,90.80
2023-04-14T18:59:53.254Z,90.80
2023-04-14T19:02:20.853Z,90.50
2023-04-14T19:04:48.409Z,90.60
2023-04-14T19:07:15.846Z,90.90
2023-04-14T19:09:43.263Z,91.30
2023-04-14T19:12:21.736Z,95.10
2023-04-14T19:14:55.531Z,95.80
2023-04-14T19:17:22.964Z,97.50
2023-04-14T19:19:50.492Z,99.90
2023-04-14T19:22:17.906Z,99.90
2023-04-14T19:24:45.310Z,99.90
2023-04-14T19:27:13.326Z,99.90
2023-04-14T19:29:41.133Z,99.90
2023-04-14T19:32:08.582Z,99.90
2023-04-14T19:34:36.109Z,99.90
2023-04-14T19:37:04.026Z,99.90
2023-04-14T19:39:31.820Z,99.90
2023-04-14T19:41:59.171Z,99.90
2023-04-14T19:44:27.263Z,99.90
2023-04-14T19:46:54.956Z,99.90
2023-04-14T19:49:22.796Z,99.90
2023-04-14T19:51:50.903Z,99.90
2023-04-14T19:54:19.125Z,99.90
2023-04-14T19:56:46.772Z,99.90
2023-04-14T19:59:14.188Z,99.90
2023-04-14T20:01:42.335Z,99.90
2023-04-14T20:04:12.226Z,99.90
2023-04-14T20:06:41.316Z,99.90
2023-04-14T20:09:09.296Z,99.90
2023-04-14T20:11:37.150Z,99.90
2023-04-14T20:14:04.865Z,99.90
2023-04-14T20:16:32.573Z,99.90
2023-04-14T20:19:00.859Z,99.90
2023-04-14T20:21:28.545Z,99.90
2023-04-14T20:23:56.156Z,99.90
2023-04-14T20:26:23.525Z,99.90
2023-04-14T20:28:51.192Z,99.90
2023-04-14T20:31:18.777Z,99.90
2023-04-14T20:33:46.209Z,99.90
2023-04-14T20:36:14.175Z,99.90
2023-04-14T20:38:41.636Z,99.90
2023-04-14T20:41:09.089Z,99.90
2023-04-14T20:43:36.546Z,99.90
2023-04-14T20:46:04.276Z,99.90
2023-04-14T20:48:32.300Z,99.90
2023-04-14T20:51:00.632Z,99.90
2023-04-14T20:53:30.064Z,99.90
2023-04-14T20:55:57.585Z,99.90
2023-04-14T20:58:25.062Z,99.90
2023-04-14T21:00:52.548Z,99.90
2023-04-14T21:03:20.074Z,99.90
2023-04-14T21:05:48.045Z,99.90
2023-04-14T21:08:15.638Z,99.90
2023-04-14T21:11:16.190Z,99.90
2023-04-14T21:15:30.321Z,99.90
2023-04-14T21:16:18.279Z,99.90
2023-04-14T21:18:45.661Z,99.90
2023-04-14T21:21:13.521Z,99.90
2023-04-14T21:23:41.450Z,99.90
2023-04-14T21:26:08.862Z,99.90
2023-04-14T21:28:36.967Z,99.90
2023-04-14T21:31:04.701Z,99.90
2023-04-14T21:33:32.430Z,99.90
2023-04-14T21:36:00.483Z,99.90
2023-04-14T21:38:28.099Z,99.90
2023-04-14T21:40:55.777Z,99.90
2023-04-14T21:43:23.183Z,99.90
2023-04-14T21:45:50.597Z,99.90
2023-04-14T21:48:19.119Z,99.90
2023-04-14T21:50:46.873Z,99.90
2023-04-14T21:53:14.364Z,99.90
2023-04-14T21:55:42.604Z,99.90
2023-04-14T21:58:09.988Z,99.90
2023-04-14T22:00:37.440Z,99.90
2023-04-14T22:03:05.030Z,99.90
2023-04-14T22:05:32.580Z,99.90
2023-04-14T22:08:00.000Z,99.90
2023-04-14T22:10:32.192Z,99.90
2023-04-14T22:13:00.692Z,99.90
2023-04-14T22:15:28.042Z,99.90
2023-04-14T22:17:55.882Z,99.90
2023-04-14T22:20:25.205Z,99.90
2023-04-14T22:22:52.577Z,99.90
2023-04-14T22:25:20.518Z,99.90
2023-04-14T22:27:47.870Z,99.90
2023-04-14T22:30:15.919Z,99.90
2023-04-14T22:32:43.532Z,99.90
2023-04-14T22:35:10.970Z,99.90
2023-04-14T22:37:38.428Z,99.90
2023-04-14T22:40:06.592Z,99.90
2023-04-14T22:42:33.942Z,99.90
2023-04-14T22:45:01.487Z,99.90
2023-04-14T22:47:29.005Z,99.90
2023-04-14T22:49:56.388Z,99.90
2023-04-14T22:52:23.909Z,99.90
2023-04-14T22:54:51.672Z,99.90
2023-04-14T22:57:19.508Z,99.90
2023-04-14T22:59:47.542Z,99.90
2023-04-14T23:02:15.068Z,99.90
2023-04-14T23:04:42.608Z,99.90
2023-04-14T23:07:10.094Z,99.90
2023-04-14T23:09:37.501Z,99.90
2023-04-14T23:12:05.043Z,99.90
2023-04-14T23:14:32.517Z,99.90
2023-04-14T23:17:00.094Z,99.90
2023-04-14T23:19:27.665Z,99.90
2023-04-14T23:21:55.052Z,99.90
2023-04-14T23:24:23.532Z,99.90
2023-04-14T23:26:51.078Z,99.90
2023-04-14T23:29:18.746Z,99.90
2023-04-14T23:31:46.666Z,99.90
2023-04-14T23:34:14.050Z,99.90
2023-04-14T23:36:41.840Z,99.90
2023-04-14T23:39:09.270Z,99.90
2023-04-14T23:41:36.659Z,99.90
2023-04-14T23:44:04.517Z,99.90
2023-04-14T23:46:32.621Z,99.90
2023-04-14T23:49:11.077Z,99.90
2023-04-14T23:51:47.761Z,99.90
2023-04-14T23:54:15.439Z,99.90
2023-04-14T23:56:43.003Z,99.90
2023-04-14T23:59:10.448Z,99.90
